createdAt,value
2023-01-09T00:01:17.083Z,89.10
2023-01-09T00:03:40.688Z,88.79
2023-01-09T00:06:04.298Z,87.49
2023-01-09T00:08:29.320Z,89.39
2023-01-09T00:10:52.835Z,88.52
2023-01-09T00:15:41.995Z,87.36
2023-01-09T00:18:05.746Z,87.66
2023-01-09T00:20:29.287Z,87.79
2023-01-09T00:22:52.883Z,87.72
2023-01-09T00:25:18.017Z,88.26
2023-01-09T00:27:41.755Z,88.18
2023-01-09T00:30:07.195Z,88.17
2023-01-09T00:32:31.184Z,89.36
2023-01-09T00:34:55.885Z,90.43
2023-01-09T00:37:19.461Z,91.43
2023-01-09T00:39:44.120Z,90.41
2023-01-09T00:42:15.029Z,88.52
2023-01-09T00:44:44.766Z,91.34
2023-01-09T00:47:13.660Z,91.01
2023-01-09T00:49:38.482Z,89.87
2023-01-09T00:52:02.427Z,88.73
2023-01-09T00:54:26.998Z,89.19
2023-01-09T00:56:51.357Z,89.48
2023-01-09T00:59:16.392Z,90.78
2023-01-09T01:01:40.127Z,92.35
2023-01-09T01:04:24.501Z,91.01
2023-01-09T01:07:05.341Z,90.98
2023-01-09T01:09:28.921Z,90.94
2023-01-09T01:11:52.462Z,90.80
2023-01-09T01:14:17.436Z,90.54
2023-01-09T01:16:41.288Z,91.47
2023-01-09T01:19:04.998Z,91.55
2023-01-09T01:21:28.509Z,91.38
2023-01-09T01:23:52.064Z,91.46
2023-01-09T01:26:17.865Z,90.13
2023-01-09T01:28:42.050Z,91.94
2023-01-09T01:31:07.736Z,91.81
2023-01-09T01:33:31.732Z,91.17
2023-01-09T01:36:02.821Z,91.30
2023-01-09T01:38:26.412Z,91.01
2023-01-09T01:40:54.735Z,90.13
2023-01-09T01:43:18.330Z,89.72
2023-01-09T01:45:42.071Z,89.31
2023-01-09T01:48:10.904Z,89.11
2023-01-09T01:50:44.515Z,88.55
2023-01-09T01:53:15.118Z,87.83
2023-01-09T01:55:43.278Z,87.52
2023-01-09T01:58:10.986Z,87.93
2023-01-09T02:00:39.537Z,89.00
2023-01-09T02:03:04.728Z,88.35
2023-01-09T02:05:30.281Z,88.35
2023-01-09T02:07:53.959Z,89.19
2023-01-09T02:10:17.860Z,87.52
2023-01-09T02:12:41.640Z,88.55
2023-01-09T02:15:10.095Z,88.28
2023-01-09T02:18:23.830Z,88.40
2023-01-09T02:20:58.941Z,88.27
2023-01-09T02:24:09.500Z,88.91
2023-01-09T02:27:18.477Z,89.18
2023-01-09T02:30:05.416Z,90.91
2023-01-09T02:32:39.366Z,89.40
2023-01-09T02:35:14.949Z,89.82
2023-01-09T02:37:46.543Z,89.48
2023-01-09T02:40:22.080Z,90.69
2023-01-09T02:42:47.072Z,90.20
2023-01-09T02:45:12.150Z,89.35
2023-01-09T02:47:42.765Z,90.22
2023-01-09T02:50:12.976Z,90.71
2023-01-09T02:53:03.086Z,90.54
2023-01-09T02:55:47.838Z,93.29
2023-01-09T02:58:38.205Z,93.69
2023-01-09T03:01:23.816Z,93.57
2023-01-09T03:03:52.982Z,94.06
2023-01-09T03:06:23.340Z,93.75
2023-01-09T03:08:51.526Z,93.87
2023-01-09T03:11:15.165Z,92.64
2023-01-09T03:13:46.351Z,92.35
2023-01-09T03:16:15.939Z,93.28
2023-01-09T03:18:41.394Z,94.34
2023-01-09T03:21:07.990Z,92.85
2023-01-09T03:23:49.586Z,92.30
2023-01-09T03:26:13.370Z,91.25
2023-01-09T03:28:36.867Z,91.33
2023-01-09T03:31:00.496Z,92.06
2023-01-09T03:33:25.448Z,91.91
2023-01-09T03:35:49.029Z,91.66
2023-01-09T03:38:12.666Z,91.52
2023-01-09T03:40:36.237Z,91.52
2023-01-09T03:42:59.745Z,91.64
2023-01-09T03:45:23.372Z,91.67
2023-01-09T03:47:46.968Z,92.75
2023-01-09T03:50:12.873Z,92.58
2023-01-09T03:52:36.822Z,92.18
2023-01-09T03:55:00.388Z,92.39
2023-01-09T03:57:24.220Z,92.86
2023-01-09T03:59:47.847Z,92.72
2023-01-09T04:02:11.570Z,92.27
2023-01-09T04:04:35.222Z,91.22
2023-01-09T04:07:00.131Z,93.03
2023-01-09T04:09:23.769Z,92.11
2023-01-09T04:11:47.399Z,93.20
2023-01-09T04:14:11.004Z,92.38
2023-01-09T04:16:34.650Z,92.14
2023-01-09T04:18:58.227Z,91.46
2023-01-09T04:21:21.765Z,91.02
2023-01-09T04:23:46.735Z,91.03
2023-01-09T04:26:10.292Z,90.94
2023-01-09T04:28:33.909Z,89.91
2023-01-09T04:30:57.409Z,90.97
2023-01-09T04:33:21.044Z,90.00
2023-01-09T04:35:44.577Z,89.48
2023-01-09T04:38:08.135Z,90.74
2023-01-09T04:40:33.058Z,89.34
2023-01-09T04:42:56.661Z,88.59
2023-01-09T04:45:20.202Z,88.80
2023-01-09T04:47:44.529Z,88.35
2023-01-09T04:50:08.982Z,88.15
2023-01-09T04:52:32.592Z,89.13
2023-01-09T04:54:56.186Z,88.62
2023-01-09T04:57:21.211Z,88.33
2023-01-09T04:59:44.777Z,88.40
2023-01-09T05:02:08.817Z,89.42
2023-01-09T05:04:32.717Z,88.70
2023-01-09T05:06:56.368Z,89.04
2023-01-09T05:09:20.208Z,89.51
2023-01-09T05:11:43.838Z,89.36
2023-01-09T05:14:08.765Z,89.47
2023-01-09T05:16:32.459Z,89.68
2023-01-09T05:18:57.209Z,89.30
2023-01-09T05:21:20.807Z,89.96
2023-01-09T05:23:44.321Z,91.93
2023-01-09T05:26:08.133Z,92.11
2023-01-09T05:28:31.788Z,91.48
2023-01-09T05:30:56.738Z,91.05
2023-01-09T05:33:20.259Z,92.66
2023-01-09T05:35:43.846Z,91.18
2023-01-09T05:38:07.385Z,91.72
2023-01-09T05:40:38.565Z,91.09
2023-01-09T05:43:03.535Z,92.12
2023-01-09T05:45:27.829Z,93.42
2023-01-09T05:47:52.808Z,93.21
2023-01-09T05:50:16.775Z,94.15
2023-01-09T05:52:40.405Z,96.12
2023-01-09T05:55:04.357Z,96.36
2023-01-09T05:57:28.881Z,95.43
2023-01-09T05:59:52.392Z,96.15
2023-01-09T06:02:16.244Z,95.66
2023-01-09T06:04:43.786Z,95.05
2023-01-09T06:07:07.362Z,95.87
2023-01-09T06:09:31.898Z,97.75
2023-01-09T06:11:55.890Z,96.01
2023-01-09T06:14:19.631Z,96.32
2023-01-09T06:16:43.315Z,95.66
2023-01-09T06:19:07.203Z,96.54
2023-01-09T06:21:32.239Z,97.09
2023-01-09T06:23:55.768Z,96.75
2023-01-09T06:26:19.336Z,96.65
2023-01-09T06:28:44.638Z,96.75
2023-01-09T06:31:08.554Z,99.09
2023-01-09T06:33:32.319Z,98.90
2023-01-09T06:35:55.943Z,97.13
2023-01-09T06:38:21.095Z,96.72
2023-01-09T06:40:44.803Z,95.69
2023-01-09T06:43:08.352Z,98.05
2023-01-09T06:45:31.953Z,99.15
2023-01-09T06:47:55.450Z,97.94
2023-01-09T06:50:19.531Z,98.61
2023-01-09T06:52:43.075Z,99.46
2023-01-09T06:55:10.133Z,97.61
2023-01-09T06:57:33.724Z,97.41
2023-01-09T06:59:57.291Z,99.82
2023-01-09T07:02:23.083Z,100.00
2023-01-09T07:04:46.693Z,99.19
2023-01-09T07:07:10.244Z,99.54
2023-01-09T07:09:33.870Z,99.30
2023-01-09T07:11:58.754Z,99.28
2023-01-09T07:14:22.316Z,96.75
2023-01-09T07:16:45.823Z,96.46
2023-01-09T07:19:09.446Z,98.14
2023-01-09T07:21:33.093Z,97.74
2023-01-09T07:23:56.722Z,97.62
2023-01-09T07:26:20.246Z,97.89
2023-01-09T07:28:45.188Z,98.21
2023-01-09T07:31:08.778Z,97.04
2023-01-09T07:33:32.613Z,96.56
2023-01-09T07:35:56.154Z,97.51
2023-01-09T07:38:19.750Z,96.80
2023-01-09T07:40:43.287Z,98.39
2023-01-09T07:43:06.911Z,97.73
2023-01-09T07:45:31.811Z,99.30
2023-01-09T07:47:55.439Z,97.85
2023-01-09T07:50:19.184Z,96.70
2023-01-09T07:52:42.725Z,98.57
2023-01-09T07:55:07.615Z,99.60
2023-01-09T07:57:31.178Z,98.55
2023-01-09T07:59:54.679Z,98.32
2023-01-09T08:02:19.715Z,97.16
2023-01-09T08:04:43.302Z,97.45
2023-01-09T08:07:06.852Z,98.13
2023-01-09T08:09:30.365Z,97.82
2023-01-09T08:11:54.901Z,97.43
2023-01-09T08:14:19.753Z,96.05
2023-01-09T08:16:43.424Z,98.87
2023-01-09T08:19:08.458Z,98.50
2023-01-09T08:21:32.044Z,97.97
2023-01-09T08:23:55.575Z,96.94
2023-01-09T08:26:19.693Z,98.17
2023-01-09T08:28:43.211Z,98.10
2023-01-09T08:31:07.058Z,98.04
2023-01-09T08:33:30.637Z,96.29
2023-01-09T08:35:55.637Z,96.49
2023-01-09T08:38:19.408Z,97.11
2023-01-09T08:40:43.068Z,97.81
2023-01-09T08:43:24.372Z,96.27
2023-01-09T08:46:05.895Z,96.22
2023-01-09T08:48:29.588Z,97.04
2023-01-09T08:50:54.526Z,96.19
2023-01-09T08:53:18.173Z,98.17
2023-01-09T08:55:41.693Z,97.13
2023-01-09T08:58:05.301Z,98.01
2023-01-09T09:00:29.375Z,100.00
2023-01-09T09:02:53.921Z,100.00
2023-01-09T09:05:17.652Z,99.90
2023-01-09T09:07:42.973Z,98.74
2023-01-09T09:10:07.321Z,99.30
2023-01-09T09:12:30.928Z,98.45
2023-01-09T09:15:11.932Z,98.91
2023-01-09T09:17:35.548Z,98.26
2023-01-09T09:19:59.088Z,97.86
2023-01-09T09:22:22.667Z,96.96
2023-01-09T09:24:47.567Z,96.97
2023-01-09T09:27:11.133Z,99.37
2023-01-09T09:29:34.791Z,99.11
2023-01-09T09:32:00.695Z,99.35
2023-01-09T09:34:24.513Z,98.27
2023-01-09T09:36:48.113Z,98.20
2023-01-09T09:39:11.642Z,98.15
2023-01-09T09:42:25.995Z,97.86
2023-01-09T09:45:07.980Z,98.32
2023-01-09T09:47:45.879Z,98.56
2023-01-09T09:51:03.747Z,98.67
2023-01-09T09:53:32.230Z,100.00
2023-01-09T09:55:57.784Z,100.00
2023-01-09T09:58:38.213Z,99.18
2023-01-09T10:01:03.007Z,100.00
2023-01-09T10:03:34.263Z,100.00
2023-01-09T10:06:00.279Z,99.92
2023-01-09T10:08:37.894Z,100.00
2023-01-09T10:11:02.542Z,100.00
2023-01-09T10:13:45.355Z,100.00
2023-01-09T10:16:29.678Z,100.00
2023-01-09T10:19:08.190Z,100.00
2023-01-09T10:21:40.278Z,100.00
2023-01-09T10:24:22.078Z,100.00
2023-01-09T10:26:49.757Z,100.00
2023-01-09T10:29:54.422Z,100.00
2023-01-09T10:32:37.074Z,100.00
2023-01-09T10:35:36.312Z,100.00
2023-01-09T10:38:09.109Z,100.00
2023-01-09T10:40:36.968Z,100.00
2023-01-09T10:43:05.518Z,99.10
2023-01-09T10:45:36.227Z,98.40
2023-01-09T10:48:07.564Z,100.00
2023-01-09T10:50:36.257Z,99.28
2023-01-09T10:53:00.007Z,98.79
2023-01-09T10:55:35.943Z,97.20
2023-01-09T10:58:04.407Z,96.95
2023-01-09T11:00:29.526Z,98.12
2023-01-09T11:02:54.697Z,97.69
2023-01-09T11:05:23.323Z,98.24
2023-01-09T11:07:51.374Z,97.68
2023-01-09T11:10:17.422Z,97.57
2023-01-09T11:12:42.813Z,96.40
2023-01-09T11:15:30.462Z,96.29
2023-01-09T11:17:54.100Z,97.05
2023-01-09T11:20:20.439Z,96.75
2023-01-09T11:22:47.471Z,96.22
2023-01-09T11:25:15.553Z,96.62
2023-01-09T11:27:39.113Z,98.04
2023-01-09T11:30:24.014Z,97.64
2023-01-09T11:32:49.996Z,97.13
2023-01-09T11:35:26.625Z,95.77
2023-01-09T11:38:00.808Z,95.68
2023-01-09T11:40:24.538Z,94.93
2023-01-09T11:43:07.293Z,94.71
2023-01-09T11:45:35.121Z,95.24
2023-01-09T11:48:01.442Z,94.60
2023-01-09T11:50:27.793Z,93.88
2023-01-09T11:53:15.109Z,93.70
2023-01-09T11:55:42.734Z,92.82
2023-01-09T11:58:06.956Z,92.35
2023-01-09T12:00:37.006Z,91.92
2023-01-09T12:03:12.583Z,92.11
2023-01-09T12:05:47.223Z,91.75
2023-01-09T12:08:37.249Z,90.32
2023-01-09T12:11:28.670Z,90.67
2023-01-09T12:14:26.983Z,90.60
2023-01-09T12:17:08.306Z,90.11
2023-01-09T12:19:53.958Z,89.63
2023-01-09T12:22:29.158Z,88.57
2023-01-09T12:25:18.943Z,88.25
2023-01-09T12:28:04.876Z,86.75
2023-01-09T12:30:49.218Z,85.47
2023-01-09T12:33:29.616Z,85.09
2023-01-09T12:36:16.126Z,86.38
2023-01-09T12:38:49.147Z,85.45
2023-01-09T12:41:30.220Z,83.47
2023-01-09T12:44:34.707Z,82.73
2023-01-09T12:47:15.870Z,83.40
2023-01-09T12:49:44.385Z,81.99
2023-01-09T12:52:13.737Z,82.59
2023-01-09T12:54:45.140Z,81.31
2023-01-09T12:57:17.013Z,82.37
2023-01-09T12:59:45.169Z,83.39
2023-01-09T13:02:23.065Z,82.43
2023-01-09T13:04:54.497Z,82.70
2023-01-09T13:07:26.122Z,81.74
2023-01-09T13:09:57.377Z,83.74
2023-01-09T13:12:23.340Z,82.79
2023-01-09T13:14:55.171Z,82.58
2023-01-09T13:17:26.489Z,82.96
2023-01-09T13:19:50.511Z,82.09
2023-01-09T13:22:16.151Z,83.08
2023-01-09T13:25:03.390Z,81.61
2023-01-09T13:27:33.253Z,81.47
2023-01-09T13:30:08.065Z,81.70
2023-01-09T13:32:45.098Z,81.65
2023-01-09T13:35:15.691Z,82.59
2023-01-09T13:37:39.260Z,82.53
2023-01-09T13:40:07.935Z,80.72
2023-01-09T13:42:39.186Z,81.27
2023-01-09T13:45:24.595Z,81.52
2023-01-09T13:48:33.858Z,81.52
2023-01-09T13:51:57.781Z,81.40
2023-01-09T13:55:18.541Z,81.13
2023-01-09T13:57:46.905Z,80.58
2023-01-09T14:00:57.382Z,81.27
2023-01-09T14:03:26.393Z,81.66
2023-01-09T14:06:13.516Z,80.71
2023-01-09T14:08:37.670Z,81.90
2023-01-09T14:11:04.121Z,80.23
2023-01-09T14:13:32.842Z,80.58
2023-01-09T14:16:07.714Z,81.37
2023-01-09T14:18:35.372Z,81.53
2023-01-09T14:21:02.308Z,80.98
2023-01-09T14:23:45.988Z,81.29
2023-01-09T14:26:19.224Z,81.62
2023-01-09T14:28:44.327Z,80.39
2023-01-09T14:31:28.663Z,81.22
2023-01-09T14:33:52.575Z,80.48
2023-01-09T14:36:21.996Z,80.35
2023-01-09T14:38:48.408Z,79.41
2023-01-09T14:41:43.463Z,79.70
2023-01-09T14:44:14.980Z,80.05
2023-01-09T14:46:42.419Z,80.28
2023-01-09T14:49:15.798Z,79.70
2023-01-09T14:51:44.216Z,78.94
2023-01-09T14:54:24.322Z,78.97
2023-01-09T14:56:48.481Z,79.62
2023-01-09T14:59:16.874Z,79.52
2023-01-09T15:01:44.485Z,80.47
2023-01-09T15:04:24.676Z,79.93
2023-01-09T15:06:48.359Z,79.54
2023-01-09T15:09:25.624Z,79.83
2023-01-09T15:11:49.619Z,79.42
2023-01-09T15:14:30.095Z,79.61
2023-01-09T15:16:55.075Z,79.42
2023-01-09T15:19:20.834Z,79.79
2023-01-09T15:21:59.148Z,80.61
2023-01-09T15:24:27.138Z,80.39
2023-01-09T15:26:54.762Z,80.38
2023-01-09T15:29:20.522Z,80.70
2023-01-09T15:31:45.924Z,80.50
2023-01-09T15:34:16.849Z,80.75
2023-01-09T15:36:40.469Z,80.23
2023-01-09T15:39:08.100Z,80.39
2023-01-09T15:41:50.411Z,80.07
2023-01-09T15:44:20.578Z,81.61
2023-01-09T15:46:46.493Z,81.49
2023-01-09T15:49:12.871Z,81.14
2023-01-09T15:51:37.008Z,81.35
2023-01-09T15:54:01.195Z,81.38
2023-01-09T15:56:26.748Z,81.78
2023-01-09T15:58:51.040Z,82.02
2023-01-09T16:01:30.434Z,81.66
2023-01-09T16:03:56.023Z,81.64
2023-01-09T16:06:26.557Z,81.37
2023-01-09T16:08:55.908Z,81.64
2023-01-09T16:11:26.239Z,82.03
2023-01-09T16:13:49.877Z,82.02
2023-01-09T16:16:15.244Z,82.15
2023-01-09T16:18:51.751Z,82.69
2023-01-09T16:21:37.541Z,82.79
2023-01-09T16:24:04.773Z,82.64
2023-01-09T16:26:31.271Z,82.64
2023-01-09T16:28:56.185Z,83.16
2023-01-09T16:31:26.859Z,83.70
2023-01-09T16:33:59.078Z,83.77
2023-01-09T16:36:23.016Z,84.29
2023-01-09T16:38:47.389Z,83.24
2023-01-09T16:41:34.434Z,82.88
2023-01-09T16:43:58.290Z,83.51
2023-01-09T16:46:23.240Z,83.45
2023-01-09T16:48:47.080Z,83.64
2023-01-09T16:51:17.528Z,83.98
2023-01-09T16:53:41.137Z,84.17
2023-01-09T16:56:05.048Z,82.92
2023-01-09T16:58:31.699Z,83.75
2023-01-09T17:00:55.346Z,84.85
2023-01-09T17:03:20.268Z,85.05
2023-01-09T17:05:44.567Z,84.91
2023-01-09T17:08:21.267Z,84.59
2023-01-09T17:10:44.859Z,84.21
2023-01-09T17:13:08.559Z,84.05
2023-01-09T17:15:32.575Z,83.78
2023-01-09T17:17:58.255Z,83.48
2023-01-09T17:20:22.997Z,84.76
2023-01-09T17:22:46.798Z,84.92
2023-01-09T17:25:33.568Z,85.30
2023-01-09T17:28:14.464Z,84.99
2023-01-09T17:30:38.055Z,85.67
2023-01-09T17:33:01.671Z,87.06
2023-01-09T17:35:25.233Z,86.05
2023-01-09T17:37:48.737Z,87.41
2023-01-09T17:40:20.295Z,86.07
2023-01-09T17:42:43.861Z,86.28
2023-01-09T17:45:09.252Z,86.83
2023-01-09T17:47:33.939Z,86.93
2023-01-09T17:49:57.449Z,87.07
2023-01-09T17:52:21.994Z,86.40
2023-01-09T17:54:45.644Z,85.99
2023-01-09T17:57:16.209Z,87.06
2023-01-09T17:59:39.850Z,87.88
2023-01-09T18:02:03.431Z,88.38
2023-01-09T18:04:27.035Z,89.23
2023-01-09T18:06:50.627Z,88.82
2023-01-09T18:09:17.736Z,88.38
2023-01-09T18:11:42.087Z,89.91
2023-01-09T18:14:07.050Z,88.50
2023-01-09T18:16:30.933Z,89.17
2023-01-09T18:18:58.294Z,88.89
2023-01-09T18:21:24.815Z,87.59
2023-01-09T18:23:50.049Z,88.16
2023-01-09T18:26:20.693Z,87.79
2023-01-09T18:28:44.331Z,89.15
2023-01-09T18:31:09.356Z,87.63
2023-01-09T18:33:33.485Z,86.66
2023-01-09T18:35:57.111Z,87.36
2023-01-09T18:38:20.675Z,86.46
2023-01-09T18:40:44.287Z,87.22
2023-01-09T18:43:09.095Z,86.59
2023-01-09T18:45:34.014Z,86.51
2023-01-09T18:47:59.141Z,87.12
2023-01-09T18:50:22.671Z,86.75
2023-01-09T18:52:46.288Z,86.08
2023-01-09T18:55:11.063Z,86.01
2023-01-09T18:57:34.690Z,87.42
2023-01-09T18:59:58.192Z,87.19
2023-01-09T19:02:24.205Z,87.05
2023-01-09T19:04:49.251Z,86.03
2023-01-09T19:07:13.076Z,85.46
2023-01-09T19:09:36.626Z,85.95
2023-01-09T19:12:00.210Z,86.28
2023-01-09T19:14:23.722Z,85.36
2023-01-09T19:16:47.389Z,85.59
2023-01-09T19:19:11.115Z,86.11
2023-01-09T19:21:36.117Z,85.64
2023-01-09T19:23:59.928Z,85.66
2023-01-09T19:26:26.046Z,86.00
2023-01-09T19:28:50.291Z,84.94
2023-01-09T19:31:14.338Z,84.68
2023-01-09T19:33:38.799Z,84.84
2023-01-09T19:36:02.360Z,84.84
2023-01-09T19:38:27.846Z,84.74
2023-01-09T19:40:51.687Z,84.49
2023-01-09T19:43:25.906Z,85.55
2023-01-09T19:45:49.725Z,83.58
2023-01-09T19:48:13.272Z,83.52
2023-01-09T19:50:38.113Z,84.15
2023-01-09T19:53:01.650Z,83.46
2023-01-09T19:55:26.692Z,84.61
2023-01-09T19:57:50.208Z,83.77
2023-01-09T20:00:15.346Z,83.84
2023-01-09T20:02:39.088Z,83.44
2023-01-09T20:05:02.786Z,84.72
2023-01-09T20:07:26.343Z,84.77
2023-01-09T20:09:50.315Z,84.48
2023-01-09T20:12:15.205Z,84.14
2023-01-09T20:14:38.771Z,84.39
2023-01-09T20:17:04.290Z,84.34
2023-01-09T20:19:30.295Z,83.78
2023-01-09T20:21:53.871Z,83.49
2023-01-09T20:24:18.092Z,83.59
2023-01-09T20:26:41.783Z,83.95
2023-01-09T20:29:08.609Z,83.19
2023-01-09T20:31:33.061Z,82.58
2023-01-09T20:33:58.968Z,82.33
2023-01-09T20:36:27.502Z,82.95
2023-01-09T20:38:51.122Z,83.15
2023-01-09T20:41:22.852Z,83.45
2023-01-09T20:43:46.519Z,84.02
2023-01-09T20:46:11.500Z,83.00
2023-01-09T20:48:35.297Z,83.83
2023-01-09T20:51:04.942Z,83.46
2023-01-09T20:53:28.579Z,83.57
2023-01-09T20:55:52.158Z,84.00
2023-01-09T20:58:15.748Z,84.51
2023-01-09T21:00:39.431Z,84.38
2023-01-09T21:03:05.618Z,83.97
2023-01-09T21:05:29.216Z,83.95
2023-01-09T21:07:53.052Z,83.84
2023-01-09T21:10:16.961Z,84.02
2023-01-09T21:12:40.606Z,84.38
2023-01-09T21:15:07.972Z,84.19
2023-01-09T21:17:34.959Z,84.11
2023-01-09T21:19:59.900Z,83.72
2023-01-09T21:22:23.486Z,83.78
2023-01-09T21:24:50.615Z,82.48
2023-01-09T21:27:14.206Z,83.78
2023-01-09T21:29:37.761Z,83.75
2023-01-09T21:32:01.440Z,84.42
2023-01-09T21:34:25.109Z,83.50
2023-01-09T21:36:50.850Z,83.01
2023-01-09T21:39:14.390Z,84.56
2023-01-09T21:41:55.502Z,84.02
2023-01-09T21:44:36.541Z,82.79
2023-01-09T21:47:01.023Z,82.95
2023-01-09T21:49:26.579Z,82.91
2023-01-09T21:51:51.577Z,83.18
2023-01-09T21:54:15.225Z,81.89
2023-01-09T21:56:39.089Z,82.88
2023-01-09T21:59:02.807Z,82.17
2023-01-09T22:01:26.438Z,83.69
2023-01-09T22:03:50.011Z,82.50
2023-01-09T22:06:13.645Z,81.14
2023-01-09T22:08:38.885Z,81.63
2023-01-09T22:11:02.631Z,82.40
2023-01-09T22:13:26.182Z,81.88
2023-01-09T22:15:49.859Z,82.72
2023-01-09T22:18:13.367Z,82.06
2023-01-09T22:20:37.482Z,82.58
2023-01-09T22:23:01.185Z,81.93
2023-01-09T22:25:26.182Z,81.94
2023-01-09T22:27:49.701Z,82.78
2023-01-09T22:30:14.410Z,82.81
2023-01-09T22:32:37.931Z,81.93
2023-01-09T22:35:01.597Z,82.39
2023-01-09T22:37:25.399Z,81.67
2023-01-09T22:39:49.535Z,81.78
2023-01-09T22:42:16.675Z,82.38
2023-01-09T22:44:40.383Z,81.62
2023-01-09T22:47:03.927Z,82.35
2023-01-09T22:49:30.300Z,81.00
2023-01-09T22:51:57.003Z,80.97
2023-01-09T22:54:20.982Z,82.00
2023-01-09T22:56:44.525Z,82.42
2023-01-09T22:59:09.723Z,81.88
2023-01-09T23:01:33.330Z,82.84
2023-01-09T23:03:56.922Z,83.43
2023-01-09T23:06:22.578Z,83.72
2023-01-09T23:08:47.184Z,83.54
2023-01-09T23:11:17.691Z,81.92
2023-01-09T23:13:41.335Z,83.37
2023-01-09T23:16:07.254Z,83.31
2023-01-09T23:18:30.802Z,82.71
2023-01-09T23:20:56.440Z,82.23
2023-01-09T23:23:21.002Z,82.70
2023-01-09T23:25:49.951Z,82.18
2023-01-09T23:28:13.476Z,83.46
2023-01-09T23:30:37.114Z,83.27
2023-01-09T23:33:02.057Z,82.37
2023-01-09T23:35:25.659Z,82.48
2023-01-09T23:37:49.213Z,82.78
2023-01-09T23:40:13.570Z,82.44
2023-01-09T23:42:54.376Z,82.86
2023-01-09T23:45:18.205Z,83.15
2023-01-09T23:47:41.762Z,82.10
2023-01-09T23:50:09.063Z,82.79
2023-01-09T23:52:32.560Z,82.34
2023-01-09T23:54:56.755Z,84.23
2023-01-09T23:57:21.037Z,86.43
2023-01-09T23:59:44.616Z,86.99
